Time;durP1;ratioP1;P1;durP2;ratioP2;P2;SDS_P1;SDS_P2;PMS_P1;PMS_P2;Temp;Humidity;BMP_temperature;BMP_pressure;BME280_temperature;BME280_humidity;BME280_pressure;Samples;Min_cycle;Max_cycle;Signal;HPM_P1;HPM_P2
2024/03/10 00:00:14;;;;;;;28.27;18.77;;;;;;;;;;5005133;28;20034;-40
2024/03/10 00:02:44;;;;;;;27.15;16.40;;;;;;;;;;5004221;28;20041;-34
2024/03/10 00:05:14;;;;;;;23.90;15.77;;;;;;;;;;5005037;28;20030;-34
2024/03/10 00:07:41;;;;;;;37.63;15.55;;;;;;;;;;5004678;28;20045;-41
2024/03/10 00:10:12;;;;;;;30.85;15.15;;;;;;;;;;5004859;28;20202;-38
2024/03/10 00:12:39;;;;;;;30.08;16.13;;;;;;;;;;5004611;28;20030;-41
2024/03/10 00:15:05;;;;;;;37.00;16.63;;;;;;;;;;5004918;28;20309;-46
2024/03/10 00:17:32;;;;;;;32.22;17.23;;;;;;;;;;5004666;28;20096;-37
2024/03/10 00:19:58;;;;;;;27.20;17.27;;;;;;;;;;5004956;28;20033;-38
2024/03/10 00:22:25;;;;;;;59.63;21.98;;;;;;;;;;5004503;28;20360;-39
2024/03/10 00:24:52;;;;;;;57.67;33.90;;;;;;;;;;5004255;28;20034;-39
2024/03/10 00:27:19;;;;;;;42.75;28.38;;;;;;;;;;5004424;28;20238;-40
2024/03/10 00:29:45;;;;;;;32.25;20.70;;;;;;;;;;5004583;28;20328;-40
2024/03/10 00:32:12;;;;;;;32.15;20.25;;;;;;;;;;5004220;28;20341;-40
2024/03/10 00:34:39;;;;;;;26.27;18.17;;;;;;;;;;5004517;28;20029;-45
2024/03/10 00:37:06;;;;;;;36.38;22.17;;;;;;;;;;5004332;28;20191;-41
2024/03/10 00:39:34;;;;;;;38.90;22.15;;;;;;;;;;5003964;28;20058;-43
2024/03/10 00:42:00;;;;;;;39.22;26.52;;;;;;;;;;5004180;28;20026;-41
2024/03/10 00:44:27;;;;;;;31.58;25.05;;;;;;;;;;5003962;28;20038;-42
2024/03/10 00:46:53;;;;;;;25.88;22.00;;;;;;;;;;5004056;28;20022;-43
2024/03/10 00:49:20;;;;;;;30.00;20.13;;;;;;;;;;5004206;28;20237;-43
2024/03/10 00:51:48;;;;;;;33.25;23.05;;;;;;;;;;5004086;28;20057;-40
2024/03/10 00:54:14;;;;;;;41.58;24.92;;;;;;;;;;5003923;28;20314;-41
2024/03/10 00:56:41;;;;;;;48.83;26.90;;;;;;;;;;5004047;28;20026;-42
2024/03/10 00:59:08;;;;;;;42.20;26.80;;;;;;;;;;5004069;28;20022;-46
2024/03/10 01:01:35;;;;;;;34.13;25.25;;;;;;;;;;5003714;28;20022;-38
2024/03/10 01:04:01;;;;;;;37.70;22.67;;;;;;;;;;5004071;28;20026;-38
2024/03/10 01:06:29;;;;;;;28.58;19.02;;;;;;;;;;4987097;28;20269;-41
2024/03/10 01:08:56;;;;;;;24.52;17.20;;;;;;;;;;5003917;28;20093;-39
2024/03/10 01:11:23;;;;;;;25.33;16.13;;;;;;;;;;5003991;28;20321;-35
2024/03/10 01:13:50;;;;;;;22.48;15.05;;;;;;;;;;5004311;28;20050;-35
2024/03/10 01:16:17;;;;;;;30.33;17.73;;;;;;;;;;5007555;28;20117;-41
2024/03/10 01:18:44;;;;;;;23.27;16.70;;;;;;;;;;5007639;28;20015;-37
2024/03/10 01:21:11;;;;;;;25.80;16.40;;;;;;;;;;5007689;28;20322;-40
2024/03/10 01:23:37;;;;;;;24.73;16.45;;;;;;;;;;5007440;28;20026;-38
2024/03/10 01:26:05;;;;;;;20.58;15.07;;;;;;;;;;5007686;28;20057;-45
2024/03/10 01:28:32;;;;;;;23.55;14.45;;;;;;;;;;5007539;28;20029;-40
2024/03/10 01:30:58;;;;;;;18.17;14.15;;;;;;;;;;5007384;28;20352;-37
2024/03/10 01:33:25;;;;;;;23.55;15.55;;;;;;;;;;5007288;28;20097;-41
2024/03/10 01:35:51;;;;;;;23.17;16.05;;;;;;;;;;5007997;28;20349;-39
2024/03/10 01:38:18;;;;;;;19.25;13.27;;;;;;;;;;5007353;28;20261;-37
2024/03/10 01:40:45;;;;;;;19.08;13.70;;;;;;;;;;5007196;28;20046;-42
2024/03/10 01:43:11;;;;;;;20.23;14.13;;;;;;;;;;5007317;28;20026;-42
2024/03/10 01:45:38;;;;;;;16.70;13.18;;;;;;;;;;5006927;28;20195;-43
2024/03/10 01:48:05;;;;;;;19.75;12.70;;;;;;;;;;5007275;28;20381;-49
2024/03/10 01:50:31;;;;;;;24.60;13.18;;;;;;;;;;5007611;28;20030;-46
2024/03/10 01:52:58;;;;;;;15.73;12.45;;;;;;;;;;5006990;28;20085;-41
2024/03/10 01:55:24;;;;;;;21.10;12.10;;;;;;;;;;5007490;28;20034;-46
2024/03/10 01:57:52;;;;;;;16.30;11.32;;;;;;;;;;5007275;28;20022;-45
2024/03/10 02:00:19;;;;;;;17.42;11.02;;;;;;;;;;5007537;28;20076;-44
2024/03/10 02:02:45;;;;;;;13.93;11.55;;;;;;;;;;5007158;28;20046;-41
2024/03/10 02:05:13;;;;;;;17.73;11.55;;;;;;;;;;5007409;28;20034;-43
2024/03/10 02:07:40;;;;;;;22.45;12.02;;;;;;;;;;5007086;28;20093;-40
2024/03/10 02:10:07;;;;;;;18.42;11.23;;;;;;;;;;5007310;28;20030;-44
2024/03/10 02:12:35;;;;;;;18.58;10.80;;;;;;;;;;5006852;28;20318;-42
2024/03/10 02:15:03;;;;;;;18.45;10.63;;;;;;;;;;5006743;28;20121;-39
2024/03/10 02:17:30;;;;;;;16.25;11.07;;;;;;;;;;5005899;28;20273;-44
2024/03/10 02:19:57;;;;;;;19.40;11.10;;;;;;;;;;5007031;28;20050;-45
2024/03/10 02:22:24;;;;;;;18.55;11.43;;;;;;;;;;5006741;28;20065;-39
2024/03/10 02:24:52;;;;;;;16.33;11.10;;;;;;;;;;5006257;28;20267;-39
2024/03/10 02:27:21;;;;;;;18.42;10.85;;;;;;;;;;5006690;28;20022;-42
2024/03/10 02:30:05;;;;;;;17.60;10.93;;;;;;;;;;5006787;28;20030;-38
2024/03/10 02:49:01;;;;;;;20.65;10.70;;;;;;;;;;5006227;28;20096;-35
2024/03/10 02:51:28;;;;;;;38.25;12.10;;;;;;;;;;5006247;28;20025;-45
2024/03/10 02:53:54;;;;;;;48.60;13.98;;;;;;;;;;5006379;28;20026;-35
2024/03/10 02:56:24;;;;;;;93.28;15.77;;;;;;;;;;5005859;28;20045;-37
2024/03/10 02:58:51;;;;;;;59.17;14.18;;;;;;;;;;5006142;28;20318;-34
2024/03/10 03:01:18;;;;;;;32.22;11.82;;;;;;;;;;5006042;28;20023;-39
2024/03/10 03:03:45;;;;;;;26.17;11.45;;;;;;;;;;5006077;28;20092;-40
2024/03/10 03:06:12;;;;;;;31.48;11.45;;;;;;;;;;5005809;28;20022;-35
2024/03/10 03:08:39;;;;;;;39.88;11.93;;;;;;;;;;5005881;28;20018;-39
2024/03/10 03:11:06;;;;;;;39.22;13.00;;;;;;;;;;5005622;28;20333;-34
2024/03/10 03:13:32;;;;;;;37.25;11.95;;;;;;;;;;5005521;28;20325;-36
2024/03/10 03:15:59;;;;;;;51.88;13.65;;;;;;;;;;5005834;28;20330;-35
2024/03/10 03:18:26;;;;;;;64.70;14.02;;;;;;;;;;5005439;28;20018;-36
2024/03/10 03:20:52;;;;;;;78.15;14.82;;;;;;;;;;5006134;28;20030;-40
2024/03/10 03:23:19;;;;;;;52.92;14.77;;;;;;;;;;5005630;28;20040;-35
2024/03/10 03:25:45;;;;;;;53.38;13.63;;;;;;;;;;5005827;28;20057;-36
2024/03/10 03:28:13;;;;;;;52.17;13.77;;;;;;;;;;5005301;28;20027;-40
2024/03/10 03:30:42;;;;;;;50.33;12.95;;;;;;;;;;5005917;28;20033;-36
2024/03/10 03:33:09;;;;;;;58.78;13.45;;;;;;;;;;5005074;28;20033;-35
2024/03/10 03:35:37;;;;;;;42.15;12.80;;;;;;;;;;5005768;28;20253;-38
2024/03/10 03:38:04;;;;;;;47.50;12.40;;;;;;;;;;5004544;28;20106;-38
2024/03/10 03:40:31;;;;;;;41.17;12.25;;;;;;;;;;5004996;28;20242;-34
2024/03/10 03:42:58;;;;;;;43.25;12.65;;;;;;;;;;5005340;28;20033;-38
2024/03/10 03:45:25;;;;;;;41.95;12.18;;;;;;;;;;5005480;28;20306;-36
2024/03/10 03:47:51;;;;;;;40.58;13.25;;;;;;;;;;5004967;28;20372;-44
2024/03/10 03:50:18;;;;;;;41.60;12.63;;;;;;;;;;5005434;28;20038;-45
2024/03/10 03:52:44;;;;;;;40.92;12.90;;;;;;;;;;5004970;28;20026;-47
2024/03/10 03:55:11;;;;;;;50.17;13.13;;;;;;;;;;5005184;28;20079;-43
2024/03/10 03:57:37;;;;;;;39.42;13.25;;;;;;;;;;5005075;28;20024;-44
2024/03/10 04:00:05;;;;;;;38.05;13.07;;;;;;;;;;5005305;28;20026;-40
2024/03/10 04:02:32;;;;;;;33.22;13.13;;;;;;;;;;5004670;28;20019;-42
2024/03/10 04:04:59;;;;;;;30.15;12.25;;;;;;;;;;5005081;28;20026;-43
2024/03/10 04:07:26;;;;;;;28.30;11.98;;;;;;;;;;5004878;28;20022;-44
2024/03/10 04:09:53;;;;;;;26.50;11.40;;;;;;;;;;5005000;28;20218;-46
2024/03/10 04:12:19;;;;;;;21.05;10.48;;;;;;;;;;5004962;28;20060;-49
2024/03/10 04:14:46;;;;;;;31.73;11.40;;;;;;;;;;5004916;28;20321;-43
2024/03/10 04:17:12;;;;;;;19.20;10.25;;;;;;;;;;5004583;28;20058;-45
2024/03/10 04:19:39;;;;;;;20.92;10.50;;;;;;;;;;5004739;28;20031;-43
2024/03/10 04:22:09;;;;;;;19.77;9.98;;;;;;;;;;5004660;28;20089;-41
2024/03/10 04:24:41;;;;;;;24.63;10.05;;;;;;;;;;5004532;28;20037;-46
2024/03/10 04:27:08;;;;;;;18.48;10.75;;;;;;;;;;5004582;28;20073;-39
2024/03/10 04:29:35;;;;;;;18.42;10.30;;;;;;;;;;5004633;28;20234;-34
2024/03/10 04:32:02;;;;;;;21.15;9.70;;;;;;;;;;5004275;28;20030;-44
2024/03/10 04:34:30;;;;;;;14.30;9.63;;;;;;;;;;5004500;28;20026;-38
2024/03/10 04:36:56;;;;;;;18.33;10.15;;;;;;;;;;5004359;28;20022;-38
2024/03/10 04:39:23;;;;;;;17.25;10.18;;;;;;;;;;5004198;28;20080;-35
2024/03/10 04:41:49;;;;;;;16.52;9.43;;;;;;;;;;5004408;28;20032;-36
2024/03/10 04:44:17;;;;;;;13.75;9.88;;;;;;;;;;5004224;28;20034;-39
2024/03/10 04:46:43;;;;;;;16.55;9.75;;;;;;;;;;5004224;28;20083;-47
2024/03/10 04:49:10;;;;;;;14.70;9.60;;;;;;;;;;5007224;28;20030;-46
2024/03/10 04:51:38;;;;;;;14.88;9.20;;;;;;;;;;5008345;28;20049;-38
2024/03/10 04:54:05;;;;;;;15.48;9.75;;;;;;;;;;5008340;28;20056;-41
2024/03/10 04:56:35;;;;;;;15.88;9.13;;;;;;;;;;5008539;28;20303;-39
2024/03/10 04:59:03;;;;;;;16.85;9.38;;;;;;;;;;5008328;28;20030;-44
2024/03/10 05:01:29;;;;;;;12.05;9.15;;;;;;;;;;5008029;28;20191;-40
2024/03/10 05:03:56;;;;;;;15.57;9.80;;;;;;;;;;5008183;28;20030;-40
2024/03/10 05:06:22;;;;;;;15.05;9.63;;;;;;;;;;5008043;28;20018;-44
2024/03/10 05:08:49;;;;;;;14.23;9.43;;;;;;;;;;5007913;28;20387;-44
2024/03/10 05:11:15;;;;;;;14.68;9.23;;;;;;;;;;5008057;28;20057;-39
2024/03/10 05:13:43;;;;;;;13.63;9.57;;;;;;;;;;5007953;28;20022;-43
2024/03/10 05:16:12;;;;;;;16.77;9.63;;;;;;;;;;5007730;28;20322;-43
2024/03/10 05:18:40;;;;;;;13.68;9.50;;;;;;;;;;5008026;28;20025;-40
2024/03/10 05:21:07;;;;;;;14.45;9.70;;;;;;;;;;5007838;28;20022;-43
2024/03/10 05:23:34;;;;;;;16.98;9.98;;;;;;;;;;5007644;28;20045;-45
2024/03/10 05:26:01;;;;;;;10.30;8.70;;;;;;;;;;4990402;28;20030;-44
2024/03/10 05:28:27;;;;;;;14.23;9.60;;;;;;;;;;5007640;28;20242;-48
2024/03/10 05:30:54;;;;;;;13.65;9.50;;;;;;;;;;5007511;28;20302;-47
2024/03/10 05:33:20;;;;;;;14.32;9.15;;;;;;;;;;5007493;28;20019;-42
2024/03/10 05:35:49;;;;;;;14.10;9.20;;;;;;;;;;5008119;28;20032;-47
2024/03/10 05:38:16;;;;;;;13.18;8.52;;;;;;;;;;5007379;28;20022;-45
2024/03/10 05:40:43;;;;;;;14.38;8.82;;;;;;;;;;5007475;28;20338;-44
2024/03/10 05:43:09;;;;;;;12.55;9.25;;;;;;;;;;5007518;28;20338;-43
2024/03/10 05:45:36;;;;;;;14.98;9.50;;;;;;;;;;5007713;28;20137;-44
2024/03/10 05:48:03;;;;;;;11.05;8.57;;;;;;;;;;5007436;28;20037;-48
2024/03/10 05:50:29;;;;;;;11.35;8.88;;;;;;;;;;5007672;28;20046;-41
2024/03/10 05:52:56;;;;;;;14.00;9.77;;;;;;;;;;5007274;28;20336;-46
2024/03/10 05:55:22;;;;;;;13.63;8.52;;;;;;;;;;5007522;28;20049;-44
2024/03/10 05:57:49;;;;;;;15.13;9.52;;;;;;;;;;5007448;28;20246;-42
2024/03/10 06:00:16;;;;;;;15.70;9.05;;;;;;;;;;5006873;28;20298;-39
2024/03/10 06:02:44;;;;;;;15.75;9.23;;;;;;;;;;5006987;28;20022;-40
2024/03/10 06:05:12;;;;;;;12.73;9.52;;;;;;;;;;5007381;28;20029;-40
2024/03/10 06:07:39;;;;;;;15.23;9.60;;;;;;;;;;5007101;28;20026;-42
2024/03/10 06:10:06;;;;;;;15.60;9.18;;;;;;;;;;5007249;28;20353;-43
2024/03/10 06:12:33;;;;;;;12.20;9.00;;;;;;;;;;5006799;28;20038;-42
2024/03/10 06:14:59;;;;;;;11.90;9.30;;;;;;;;;;5006870;28;20023;-40
2024/03/10 06:17:31;;;;;;;14.50;8.77;;;;;;;;;;5006957;28;20302;-41
2024/03/10 06:25:28;;;;;;;15.00;9.60;;;;;;;;;;5007088;28;20021;-39
2024/03/10 06:27:57;;;;;;;14.85;9.10;;;;;;;;;;5006537;28;20073;-43
2024/03/10 06:30:24;;;;;;;14.50;8.80;;;;;;;;;;5006968;28;20038;-40
2024/03/10 06:32:51;;;;;;;12.13;9.45;;;;;;;;;;5006556;28;20214;-42
2024/03/10 06:35:18;;;;;;;13.85;9.52;;;;;;;;;;5006685;28;20054;-49
2024/03/10 06:37:48;;;;;;;15.65;9.55;;;;;;;;;;5006545;28;20023;-41
2024/03/10 06:40:16;;;;;;;13.82;9.43;;;;;;;;;;5006624;28;20101;-38
2024/03/10 06:42:44;;;;;;;11.70;9.63;;;;;;;;;;5006769;28;20041;-39
2024/03/10 06:45:12;;;;;;;13.30;9.57;;;;;;;;;;5006609;28;20081;-34
2024/03/10 06:47:41;;;;;;;23.02;10.10;;;;;;;;;;5006469;28;20022;-39
2024/03/10 06:50:09;;;;;;;14.70;9.15;;;;;;;;;;5006505;28;20080;-37
2024/03/10 06:52:36;;;;;;;15.65;9.68;;;;;;;;;;5006065;28;20018;-35
2024/03/10 06:55:03;;;;;;;17.23;10.10;;;;;;;;;;5006349;28;20022;-39
2024/03/10 06:57:29;;;;;;;12.80;9.25;;;;;;;;;;5006057;28;20049;-34
2024/03/10 06:59:56;;;;;;;17.23;9.77;;;;;;;;;;5006281;28;20030;-34
2024/03/10 07:02:23;;;;;;;11.98;8.98;;;;;;;;;;5005880;28;20052;-41
2024/03/10 07:04:50;;;;;;;14.77;9.00;;;;;;;;;;5006180;28;20053;-37
2024/03/10 07:07:16;;;;;;;14.32;9.38;;;;;;;;;;5005857;28;20018;-36
2024/03/10 07:09:43;;;;;;;13.10;9.40;;;;;;;;;;5006123;28;20077;-35
2024/03/10 07:12:10;;;;;;;12.52;9.13;;;;;;;;;;5005065;28;20015;-38
2024/03/10 07:14:36;;;;;;;13.20;9.32;;;;;;;;;;5005782;28;20038;-35
2024/03/10 07:17:03;;;;;;;15.75;9.18;;;;;;;;;;5005783;28;20090;-34
2024/03/10 07:19:30;;;;;;;12.60;9.32;;;;;;;;;;5005638;28;20120;-41
2024/03/10 07:21:57;;;;;;;13.35;9.10;;;;;;;;;;5005571;28;20014;-35
2024/03/10 07:24:23;;;;;;;11.80;9.15;;;;;;;;;;5005662;28;20035;-36
2024/03/10 07:26:50;;;;;;;12.65;9.57;;;;;;;;;;5005358;28;20060;-35
2024/03/10 07:29:16;;;;;;;14.23;8.95;;;;;;;;;;5005609;28;20037;-34
2024/03/10 07:31:43;;;;;;;11.07;8.82;;;;;;;;;;5005483;28;20049;-34
2024/03/10 07:34:09;;;;;;;13.02;9.25;;;;;;;;;;5005267;28;20038;-34
2024/03/10 07:36:36;;;;;;;12.80;9.07;;;;;;;;;;5005761;28;20061;-35
2024/03/10 07:39:06;;;;;;;11.88;9.38;;;;;;;;;;5005394;28;20302;-34
2024/03/10 07:41:33;;;;;;;10.60;8.95;;;;;;;;;;5004846;28;20105;-34
2024/03/10 07:43:59;;;;;;;13.75;9.05;;;;;;;;;;5005372;28;20034;-34
2024/03/10 07:46:26;;;;;;;10.25;9.02;;;;;;;;;;5005191;28;20081;-37
2024/03/10 07:48:54;;;;;;;13.45;8.77;;;;;;;;;;5005249;28;20034;-37
2024/03/10 07:51:23;;;;;;;10.13;8.65;;;;;;;;;;5005045;28;20022;-45
2024/03/10 07:53:50;;;;;;;10.88;9.02;;;;;;;;;;5004942;28;20089;-45
2024/03/10 07:56:17;;;;;;;11.70;8.77;;;;;;;;;;5004784;28;20209;-42
2024/03/10 07:58:44;;;;;;;15.48;9.65;;;;;;;;;;5004859;28;20018;-45
2024/03/10 08:01:11;;;;;;;11.55;8.63;;;;;;;;;;5004887;28;20079;-47
2024/03/10 08:03:38;;;;;;;13.52;8.68;;;;;;;;;;5004686;28;20270;-43
2024/03/10 08:06:07;;;;;;;11.77;9.05;;;;;;;;;;5004894;28;20327;-43
2024/03/10 08:08:33;;;;;;;11.93;8.95;;;;;;;;;;5004954;28;20022;-49
2024/03/10 08:11:00;;;;;;;13.75;8.55;;;;;;;;;;5004688;28;20060;-43
2024/03/10 08:13:27;;;;;;;9.35;8.45;;;;;;;;;;5004595;28;20253;-46
2024/03/10 08:15:54;;;;;;;13.07;8.95;;;;;;;;;;5005117;28;20265;-47
2024/03/10 08:18:20;;;;;;;15.93;8.15;;;;;;;;;;5004467;28;20026;-43
2024/03/10 08:20:47;;;;;;;16.75;9.48;;;;;;;;;;5005121;28;20018;-42
2024/03/10 08:23:13;;;;;;;12.80;9.20;;;;;;;;;;5004255;28;20033;-44
2024/03/10 08:25:42;;;;;;;13.65;9.15;;;;;;;;;;5004811;28;20213;-41
2024/03/10 08:28:09;;;;;;;12.45;8.55;;;;;;;;;;5004765;28;20060;-48
2024/03/10 08:30:35;;;;;;;11.50;8.88;;;;;;;;;;5004870;28;20031;-46
2024/03/10 08:33:04;;;;;;;12.10;9.38;;;;;;;;;;5004288;28;20060;-40
2024/03/10 08:35:31;;;;;;;11.82;8.80;;;;;;;;;;5004790;28;20026;-45
2024/03/10 08:37:59;;;;;;;14.07;8.90;;;;;;;;;;5004407;28;20329;-43
2024/03/10 08:40:26;;;;;;;10.77;8.73;;;;;;;;;;5004079;28;20338;-44
2024/03/10 08:42:53;;;;;;;13.70;9.18;;;;;;;;;;5004451;28;20022;-39
2024/03/10 08:45:19;;;;;;;14.75;9.38;;;;;;;;;;5004332;28;20049;-46
2024/03/10 08:47:47;;;;;;;13.73;9.15;;;;;;;;;;5004351;28;20243;-36
2024/03/10 08:50:14;;;;;;;23.33;9.85;;;;;;;;;;5004572;28;20065;-39
2024/03/10 08:52:41;;;;;;;14.38;9.55;;;;;;;;;;5004163;28;20030;-37
2024/03/10 08:55:13;;;;;;;11.30;8.60;;;;;;;;;;5004352;28;20144;-34
2024/03/10 08:57:41;;;;;;;10.38;8.85;;;;;;;;;;5004205;28;20187;-44
2024/03/10 09:00:11;;;;;;;11.32;8.80;;;;;;;;;;5004466;28;20081;-39
2024/03/10 09:02:39;;;;;;;11.82;9.35;;;;;;;;;;5004006;28;20201;-37
2024/03/10 09:05:07;;;;;;;11.05;9.02;;;;;;;;;;5004528;28;20080;-37
2024/03/10 09:07:35;;;;;;;14.73;9.48;;;;;;;;;;5004081;28;20033;-39
2024/03/10 09:10:02;;;;;;;11.75;9.13;;;;;;;;;;5004283;28;20046;-38
2024/03/10 09:12:29;;;;;;;13.95;9.65;;;;;;;;;;5004110;28;20028;-42
2024/03/10 09:14:57;;;;;;;11.50;9.70;;;;;;;;;;5004286;28;20034;-40
2024/03/10 09:17:25;;;;;;;14.75;9.32;;;;;;;;;;5003874;28;20026;-45
2024/03/10 09:19:52;;;;;;;11.38;9.68;;;;;;;;;;5004403;28;20030;-41
2024/03/10 09:22:19;;;;;;;13.15;9.35;;;;;;;;;;5004038;28;20018;-39
2024/03/10 09:24:48;;;;;;;14.52;9.30;;;;;;;;;;5003998;28;20187;-40
2024/03/10 09:27:16;;;;;;;15.18;9.30;;;;;;;;;;5003938;28;20026;-45
2024/03/10 09:29:46;;;;;;;13.02;9.20;;;;;;;;;;5003813;28;20336;-44
2024/03/10 09:32:19;;;;;;;11.50;9.40;;;;;;;;;;5003821;28;20038;-43
2024/03/10 09:34:46;;;;;;;11.40;9.88;;;;;;;;;;5004431;28;20038;-40
2024/03/10 09:37:13;;;;;;;14.43;9.18;;;;;;;;;;5007432;28;20206;-49
2024/03/10 09:39:39;;;;;;;11.00;9.63;;;;;;;;;;5007439;28;20096;-40
2024/03/10 09:42:06;;;;;;;12.52;9.13;;;;;;;;;;5007507;28;20018;-42
2024/03/10 09:44:33;;;;;;;11.13;9.85;;;;;;;;;;5007459;28;20026;-46
2024/03/10 09:47:00;;;;;;;11.50;9.88;;;;;;;;;;5007662;28;20026;-45
2024/03/10 09:49:27;;;;;;;11.40;9.75;;;;;;;;;;5007581;28;20034;-42
2024/03/10 09:51:56;;;;;;;12.35;10.00;;;;;;;;;;5007155;28;20046;-36
2024/03/10 09:54:23;;;;;;;16.88;10.52;;;;;;;;;;5007291;28;20230;-36
2024/03/10 09:56:50;;;;;;;14.73;9.75;;;;;;;;;;5007217;28;20069;-37
2024/03/10 09:59:20;;;;;;;12.32;10.55;;;;;;;;;;5007114;28;20041;-40
2024/03/10 10:01:48;;;;;;;15.68;10.13;;;;;;;;;;5007044;28;20029;-36
2024/03/10 10:04:16;;;;;;;13.38;9.73;;;;;;;;;;5007058;28;20097;-35
2024/03/10 10:06:46;;;;;;;12.38;10.43;;;;;;;;;;5006842;28;20241;-40
2024/03/10 10:09:13;;;;;;;12.93;10.05;;;;;;;;;;5007125;28;20037;-36
2024/03/10 10:11:40;;;;;;;14.38;10.45;;;;;;;;;;5006895;28;20029;-34
2024/03/10 10:14:07;;;;;;;15.75;10.80;;;;;;;;;;5006753;28;20041;-33
2024/03/10 10:16:34;;;;;;;15.48;10.90;;;;;;;;;;5007124;28;20026;-35
2024/03/10 10:19:02;;;;;;;13.60;10.82;;;;;;;;;;5006970;28;20037;-41
2024/03/10 10:21:29;;;;;;;14.95;9.93;;;;;;;;;;5006558;28;20078;-42
2024/03/10 10:23:57;;;;;;;15.13;11.00;;;;;;;;;;5006853;28;20077;-37
2024/03/10 10:26:24;;;;;;;16.77;10.35;;;;;;;;;;5006900;28;20313;-34
2024/03/10 10:29:06;;;;;;;20.20;11.50;;;;;;;;;;5006554;28;20086;-37
2024/03/10 10:31:32;;;;;;;18.23;11.35;;;;;;;;;;5006562;28;20344;-37
2024/03/10 10:34:00;;;;;;;18.42;10.93;;;;;;;;;;5006474;28;20230;-41
2024/03/10 10:36:26;;;;;;;16.70;10.63;;;;;;;;;;5006497;28;20342;-38
2024/03/10 10:38:53;;;;;;;17.73;11.00;;;;;;;;;;5006577;28;20033;-41
2024/03/10 10:41:21;;;;;;;18.73;11.73;;;;;;;;;;5006001;28;20084;-43
2024/03/10 10:43:48;;;;;;;20.55;12.35;;;;;;;;;;5006323;28;20076;-39
2024/03/10 10:46:15;;;;;;;25.17;12.48;;;;;;;;;;5006316;28;20093;-41
2024/03/10 10:48:44;;;;;;;32.75;11.98;;;;;;;;;;5006237;28;20252;-42
2024/03/10 10:51:14;;;;;;;37.53;12.57;;;;;;;;;;5006180;28;20022;-46
2024/03/10 10:53:41;;;;;;;33.40;12.40;;;;;;;;;;5006034;28;20029;-38
2024/03/10 10:56:09;;;;;;;23.15;11.88;;;;;;;;;;5006055;28;20218;-45
2024/03/10 10:58:35;;;;;;;23.92;11.90;;;;;;;;;;5005977;28;20022;-42
2024/03/10 11:01:07;;;;;;;18.35;10.98;;;;;;;;;;5006059;28;20022;-39
2024/03/10 11:03:36;;;;;;;23.40;11.57;;;;;;;;;;5005846;28;20029;-39
2024/03/10 11:06:02;;;;;;;27.05;11.68;;;;;;;;;;5005982;28;20026;-39
2024/03/10 11:08:30;;;;;;;23.58;11.02;;;;;;;;;;5005840;28;20022;-47
2024/03/10 11:10:57;;;;;;;21.10;11.48;;;;;;;;;;5005968;28;20027;-41
2024/03/10 11:13:25;;;;;;;22.30;11.55;;;;;;;;;;5005721;28;20041;-40
2024/03/10 11:16:14;;;;;;;28.50;11.90;;;;;;;;;;5005619;28;20041;-46
2024/03/10 11:18:40;;;;;;;19.80;11.27;;;;;;;;;;5005827;28;20022;-40
2024/03/10 11:21:12;;;;;;;23.77;11.13;;;;;;;;;;5005754;28;20311;-43
2024/03/10 11:23:38;;;;;;;;;;;;;;;;;;5006134;28;20026;-39
2024/03/10 11:26:09;;;;;;;18.27;10.90;;;;;;;;;;5005684;28;19902;-42
2024/03/10 11:28:54;;;;;;;25.38;11.82;;;;;;;;;;5005523;28;20048;-39
2024/03/10 11:31:25;;;;;;;20.13;11.15;;;;;;;;;;5005361;28;20398;-40
2024/03/10 11:33:53;;;;;;;22.90;11.13;;;;;;;;;;5005544;28;20357;-46
2024/03/10 11:36:23;;;;;;;19.17;10.93;;;;;;;;;;5005225;28;20018;-39
2024/03/10 11:38:51;;;;;;;17.20;10.23;;;;;;;;;;5005340;28;20014;-45
2024/03/10 11:41:18;;;;;;;21.27;10.63;;;;;;;;;;5004985;28;20046;-48
2024/03/10 11:43:48;;;;;;;23.63;11.43;;;;;;;;;;5005139;28;20038;-43
2024/03/10 11:46:19;;;;;;;22.85;10.70;;;;;;;;;;5005113;28;20045;-46
2024/03/10 11:48:52;;;;;;;22.00;10.35;;;;;;;;;;5005015;28;20262;-40
2024/03/10 11:51:19;;;;;;;27.02;11.55;;;;;;;;;;5005014;28;20064;-39
2024/03/10 11:53:45;;;;;;;22.67;10.95;;;;;;;;;;5005071;28;20037;-42
2024/03/10 11:56:14;;;;;;;24.52;11.73;;;;;;;;;;5004921;28;20022;-42
2024/03/10 11:58:47;;;;;;;19.77;11.20;;;;;;;;;;5004283;28;20044;-40
2024/03/10 12:01:16;;;;;;;20.63;11.70;;;;;;;;;;5004816;28;20026;-42
2024/03/10 12:03:44;;;;;;;26.65;12.35;;;;;;;;;;5004900;28;20083;-39
2024/03/10 12:06:10;;;;;;;33.17;12.50;;;;;;;;;;5004793;28;20076;-43
2024/03/10 12:08:37;;;;;;;41.00;12.90;;;;;;;;;;5004711;28;20029;-47
2024/03/10 12:11:07;;;;;;;28.58;12.50;;;;;;;;;;5004505;28;20221;-41
2024/03/10 12:13:34;;;;;;;24.13;12.18;;;;;;;;;;5004594;28;20022;-41
2024/03/10 12:16:02;;;;;;;26.98;12.23;;;;;;;;;;5004570;28;20018;-42
2024/03/10 12:18:33;;;;;;;31.02;12.05;;;;;;;;;;5004485;28;20373;-38
2024/03/10 12:21:00;;;;;;;32.63;13.88;;;;;;;;;;5004488;28;20058;-45
2024/03/10 12:23:32;;;;;;;20.70;12.55;;;;;;;;;;5004778;28;20077;-40
2024/03/10 12:25:59;;;;;;;20.55;12.75;;;;;;;;;;5004564;28;20065;-35
2024/03/10 12:28:26;;;;;;;20.63;13.00;;;;;;;;;;5004553;28;20022;-42
2024/03/10 12:31:01;;;;;;;26.45;13.75;;;;;;;;;;5004890;28;20044;-41
2024/03/10 12:33:28;;;;;;;26.88;13.45;;;;;;;;;;5004565;28;20026;-41
2024/03/10 12:35:54;;;;;;;23.38;12.95;;;;;;;;;;5004776;28;20202;-40
2024/03/10 12:38:21;;;;;;;21.35;12.65;;;;;;;;;;5004287;28;20355;-42
2024/03/10 12:40:47;;;;;;;21.15;12.15;;;;;;;;;;5004288;28;20050;-45
2024/03/10 12:43:16;;;;;;;19.67;13.82;;;;;;;;;;5004201;28;20026;-46
2024/03/10 12:45:42;;;;;;;17.63;13.35;;;;;;;;;;5004013;28;20034;-40
2024/03/10 12:48:09;;;;;;;20.13;13.82;;;;;;;;;;5004478;28;20024;-41
2024/03/10 12:50:36;;;;;;;20.73;13.90;;;;;;;;;;5004647;28;20034;-42
2024/03/10 12:53:02;;;;;;;17.88;14.00;;;;;;;;;;5004172;28;20030;-41
2024/03/10 12:55:30;;;;;;;18.42;14.25;;;;;;;;;;5004479;28;20018;-44
2024/03/10 12:57:57;;;;;;;17.63;13.48;;;;;;;;;;5004088;28;20082;-42
2024/03/10 13:02:50;;;;;;;21.08;12.88;;;;;;;;;;5004171;28;20077;-44
2024/03/10 13:05:17;;;;;;;19.75;13.45;;;;;;;;;;5004612;28;20302;-43
2024/03/10 13:07:44;;;;;;;17.80;13.52;;;;;;;;;;5004090;28;20310;-41
2024/03/10 13:10:11;;;;;;;15.52;13.32;;;;;;;;;;5005555;28;20042;-42
2024/03/10 13:12:38;;;;;;;24.55;14.07;;;;;;;;;;5008008;28;20042;-48
2024/03/10 13:15:05;;;;;;;19.15;13.18;;;;;;;;;;5008142;28;20037;-44
2024/03/10 13:17:34;;;;;;;23.20;14.57;;;;;;;;;;5008544;28;20209;-48
2024/03/10 13:20:05;;;;;;;24.02;14.10;;;;;;;;;;5008514;28;20084;-44
2024/03/10 13:22:32;;;;;;;18.95;13.48;;;;;;;;;;5007843;28;20018;-47
2024/03/10 13:24:58;;;;;;;19.13;13.52;;;;;;;;;;5008230;28;20313;-44
2024/03/10 13:27:25;;;;;;;17.55;13.98;;;;;;;;;;5007759;28;20094;-42
2024/03/10 13:29:51;;;;;;;23.75;15.02;;;;;;;;;;5007496;28;20041;-43
2024/03/10 13:32:18;;;;;;;20.42;14.13;;;;;;;;;;5007611;28;20077;-45
2024/03/10 13:34:45;;;;;;;23.00;14.30;;;;;;;;;;5007897;28;20026;-42
2024/03/10 13:37:11;;;;;;;22.92;13.43;;;;;;;;;;5007467;28;20018;-41
2024/03/10 13:39:38;;;;;;;20.15;13.65;;;;;;;;;;5007659;28;20042;-46
2024/03/10 13:42:05;;;;;;;19.23;13.30;;;;;;;;;;5007794;28;20022;-44
2024/03/10 13:44:31;;;;;;;16.98;13.32;;;;;;;;;;5007567;28;20034;-42
2024/03/10 13:46:58;;;;;;;21.23;13.57;;;;;;;;;;5007591;28;20026;-42
2024/03/10 13:49:24;;;;;;;18.88;13.70;;;;;;;;;;5007683;28;20089;-47
2024/03/10 13:51:52;;;;;;;20.83;13.70;;;;;;;;;;5007277;28;20026;-48
2024/03/10 13:54:18;;;;;;;19.85;13.95;;;;;;;;;;5007299;28;20037;-43
2024/03/10 13:56:45;;;;;;;19.95;13.18;;;;;;;;;;5007370;28;20082;-50
2024/03/10 13:59:12;;;;;;;18.48;13.43;;;;;;;;;;5007194;28;20050;-50
2024/03/10 14:01:39;;;;;;;21.20;14.95;;;;;;;;;;5007281;28;20037;-42
2024/03/10 14:04:07;;;;;;;19.08;15.35;;;;;;;;;;5007160;28;20068;-49
2024/03/10 14:06:37;;;;;;;17.67;14.23;;;;;;;;;;5007083;28;20026;-50
2024/03/10 14:09:04;;;;;;;17.75;14.50;;;;;;;;;;5007064;28;20034;-43
2024/03/10 14:11:32;;;;;;;18.45;14.07;;;;;;;;;;5006986;28;20018;-45
2024/03/10 14:13:58;;;;;;;20.45;13.93;;;;;;;;;;5006841;28;20034;-42
2024/03/10 14:16:26;;;;;;;20.55;14.07;;;;;;;;;;5006980;28;20073;-36
2024/03/10 14:18:53;;;;;;;19.65;14.73;;;;;;;;;;5006875;28;20034;-34
2024/03/10 14:21:19;;;;;;;19.15;14.82;;;;;;;;;;5006180;28;20018;-37
2024/03/10 14:23:46;;;;;;;19.75;14.70;;;;;;;;;;5006877;28;20230;-50
2024/03/10 14:26:13;;;;;;;16.65;13.95;;;;;;;;;;5006671;28;20082;-38
2024/03/10 14:28:40;;;;;;;22.40;15.73;;;;;;;;;;5006561;28;20028;-42
2024/03/10 14:31:07;;;;;;;19.67;16.20;;;;;;;;;;5006613;28;20268;-42
2024/03/10 14:33:34;;;;;;;20.98;17.48;;;;;;;;;;5006589;28;20282;-42
2024/03/10 14:36:01;;;;;;;18.48;16.50;;;;;;;;;;5006613;28;20081;-42
2024/03/10 14:38:29;;;;;;;21.63;17.63;;;;;;;;;;5006450;28;20053;-41
2024/03/10 14:41:00;;;;;;;24.70;18.55;;;;;;;;;;5006423;28;20050;-41
2024/03/10 14:43:26;;;;;;;24.55;18.75;;;;;;;;;;5006252;28;20373;-47
2024/03/10 14:45:54;;;;;;;20.52;17.08;;;;;;;;;;5006783;28;20093;-41